Time;durP1;ratioP1;P1;durP2;ratioP2;P2;SDS_P1;SDS_P2;PMS_P1;PMS_P2;Temp;Humidity;BMP_temperature;BMP_pressure;BME280_temperature;BME280_humidity;BME280_pressure;Samples;Min_cycle;Max_cycle;Signal;HPM_P1;HPM_P2
2021/03/16 00:00:50;;;;;;;7.80;1.70;;;;;;;;;;10188371;28;20031;-66
2021/03/16 00:06:07;;;;;;;3.58;1.52;;;;;;;;;;10182773;28;20066;-67
2021/03/16 00:11:04;;;;;;;2.27;1.00;;;;;;;;;;10182932;28;20071;-66
2021/03/16 00:16:02;;;;;;;8.00;1.20;;;;;;;;;;10177748;28;20070;-67
2021/03/16 00:20:59;;;;;;;5.20;1.47;;;;;;;;;;10172327;28;20038;-66
2021/03/16 00:25:56;;;;;;;10.10;1.50;;;;;;;;;;10186340;28;20044;-67
2021/03/16 00:30:54;;;;;;;12.97;1.30;;;;;;;;;;10174210;28;20053;-66
2021/03/16 00:35:51;;;;;;;8.30;1.83;;;;;;;;;;10194891;28;20074;-67
2021/03/16 00:40:50;;;;;;;12.93;1.50;;;;;;;;;;10183039;28;20557;-67
2021/03/16 00:45:47;;;;;;;8.23;1.35;;;;;;;;;;10194383;28;20049;-67
2021/03/16 00:50:45;;;;;;;10.32;3.65;;;;;;;;;;10186491;28;20045;-68
2021/03/16 00:55:43;;;;;;;12.05;2.47;;;;;;;;;;10184753;28;20496;-67
2021/03/16 01:00:43;;;;;;;5.72;1.77;;;;;;;;;;10197514;28;20039;-67
2021/03/16 01:05:40;;;;;;;2.33;1.23;;;;;;;;;;10197517;28;20043;-65
2021/03/16 01:10:38;;;;;;;7.23;2.53;;;;;;;;;;10180933;28;20097;-66
2021/03/16 01:15:35;;;;;;;10.47;2.37;;;;;;;;;;10194336;28;20720;-68
2021/03/16 01:20:33;;;;;;;10.67;2.53;;;;;;;;;;10190177;28;20045;-65
2021/03/16 01:25:31;;;;;;;7.47;1.80;;;;;;;;;;10184239;28;20046;-64
2021/03/16 01:30:28;;;;;;;14.67;1.93;;;;;;;;;;10192196;28;20170;-64
2021/03/16 01:35:26;;;;;;;12.30;2.13;;;;;;;;;;10183035;28;20066;-64
2021/03/16 01:40:29;;;;;;;5.87;1.03;;;;;;;;;;10187859;28;20761;-65
2021/03/16 01:45:27;;;;;;;3.70;1.17;;;;;;;;;;10192401;28;20516;-64
2021/03/16 01:50:25;;;;;;;7.37;1.60;;;;;;;;;;10177202;28;20047;-64
2021/03/16 01:55:22;;;;;;;7.40;0.77;;;;;;;;;;10188862;28;20073;-65
2021/03/16 02:00:23;;;;;;;12.48;1.58;;;;;;;;;;10188772;28;20516;-64
2021/03/16 02:05:40;;;;;;;6.20;1.83;;;;;;;;;;10196698;28;20405;-64
2021/03/16 02:11:03;;;;;;;5.57;1.25;;;;;;;;;;10194268;28;20062;-66
2021/03/16 02:16:26;;;;;;;5.22;1.58;;;;;;;;;;10180475;28;20050;-64
2021/03/16 02:21:43;;;;;;;6.75;1.63;;;;;;;;;;10186371;28;20572;-65
2021/03/16 02:27:01;;;;;;;6.00;1.73;;;;;;;;;;10184535;28;20123;-63
2021/03/16 02:32:21;;;;;;;10.70;1.97;;;;;;;;;;10196183;28;20034;-63
2021/03/16 02:37:40;;;;;;;10.63;2.05;;;;;;;;;;10178239;28;20517;-64
2021/03/16 02:42:57;;;;;;;33.88;3.30;;;;;;;;;;10195946;28;20034;-64
2021/03/16 02:48:14;;;;;;;10.77;1.50;;;;;;;;;;10173350;28;20038;-65
2021/03/16 02:53:30;;;;;;;10.00;2.58;;;;;;;;;;10195020;28;20078;-64
2021/03/16 02:58:47;;;;;;;16.60;1.77;;;;;;;;;;10193025;28;20034;-64
2021/03/16 03:04:06;;;;;;;14.48;1.48;;;;;;;;;;10192745;28;20042;-65
2021/03/16 03:09:22;;;;;;;;;;;;;;;;;;10197965;28;20038;-64
2021/03/16 03:14:38;;;;;;;11.05;2.15;;;;;;;;;;10198970;28;20300;-63
2021/03/16 03:19:54;;;;;;;3.20;0.88;;;;;;;;;;10195118;28;20065;-63
2021/03/16 03:25:31;;;;;;;5.03;2.53;;;;;;;;;;10184123;28;20030;-65
2021/03/16 03:30:48;;;;;;;10.57;1.25;;;;;;;;;;10186360;28;20038;-65
2021/03/16 03:36:05;;;;;;;6.28;1.52;;;;;;;;;;10185739;28;20129;-65
2021/03/16 03:41:24;;;;;;;5.22;1.23;;;;;;;;;;10191124;28;21353;-64
2021/03/16 03:46:41;;;;;;;6.47;1.38;;;;;;;;;;10191543;28;20039;-64
2021/03/16 03:51:58;;;;;;;7.53;1.30;;;;;;;;;;10195296;28;20053;-66
2021/03/16 03:57:14;;;;;;;8.05;2.00;;;;;;;;;;10197801;28;20062;-66
2021/03/16 04:02:30;;;;;;;1.17;0.65;;;;;;;;;;10189155;28;20034;-65
2021/03/16 04:07:46;;;;;;;6.63;1.17;;;;;;;;;;10202106;28;20050;-66
2021/03/16 04:13:03;;;;;;;1.38;0.63;;;;;;;;;;10201997;28;20042;-64
2021/03/16 04:18:19;;;;;;;0.88;0.55;;;;;;;;;;10192869;28;20066;-65
2021/03/16 04:23:35;;;;;;;1.45;0.93;;;;;;;;;;10197811;28;20715;-65
2021/03/16 04:28:51;;;;;;;5.57;0.73;;;;;;;;;;10190160;28;20046;-66
2021/03/16 04:34:07;;;;;;;4.93;0.50;;;;;;;;;;10196995;28;20038;-65
2021/03/16 04:39:23;;;;;;;7.13;1.42;;;;;;;;;;10191816;28;20058;-65
2021/03/16 04:44:39;;;;;;;2.90;1.50;;;;;;;;;;10191021;28;21186;-65
2021/03/16 04:49:55;;;;;;;7.47;1.40;;;;;;;;;;10201877;28;20038;-64
2021/03/16 04:55:11;;;;;;;4.50;0.90;;;;;;;;;;10191095;28;20082;-65
2021/03/16 05:00:27;;;;;;;5.93;0.73;;;;;;;;;;10197378;28;20289;-65
2021/03/16 05:05:43;;;;;;;3.88;0.75;;;;;;;;;;10190737;28;20481;-64
2021/03/16 05:11:00;;;;;;;8.20;1.85;;;;;;;;;;10194060;23;20054;-65
2021/03/16 05:16:16;;;;;;;4.32;0.93;;;;;;;;;;10175780;28;20034;-66
2021/03/16 05:21:32;;;;;;;11.35;1.65;;;;;;;;;;10203896;28;20026;-67
2021/03/16 05:26:48;;;;;;;10.85;1.85;;;;;;;;;;10209328;28;20030;-67
2021/03/16 05:32:05;;;;;;;11.80;2.17;;;;;;;;;;10200785;28;20038;-66
2021/03/16 05:37:21;;;;;;;6.82;1.95;;;;;;;;;;10196858;28;20481;-66
2021/03/16 05:42:37;;;;;;;8.13;1.52;;;;;;;;;;10193512;28;20054;-64
2021/03/16 05:47:54;;;;;;;15.50;2.25;;;;;;;;;;10199554;23;20129;-62
2021/03/16 05:53:10;;;;;;;9.65;2.30;;;;;;;;;;10177535;28;20453;-61
2021/03/16 06:03:48;;;;;;;9.60;2.22;;;;;;;;;;10000431;29;20068;-66
2021/03/16 06:09:04;;;;;;;12.20;1.90;;;;;;;;;;10002843;29;20028;-67
2021/03/16 06:14:30;;;;;;;8.50;1.63;;;;;;;;;;10027204;29;20801;-67
2021/03/16 06:19:46;;;;;;;4.65;1.33;;;;;;;;;;10056819;28;20377;-67
2021/03/16 06:25:02;;;;;;;7.30;2.03;;;;;;;;;;10055124;28;20036;-68
2021/03/16 06:30:25;;;;;;;10.00;1.92;;;;;;;;;;10068427;29;20060;-66
2021/03/16 06:35:41;;;;;;;12.88;1.60;;;;;;;;;;10055798;28;20028;-68
2021/03/16 06:41:17;;;;;;;6.10;1.52;;;;;;;;;;10050180;28;20036;-67
2021/03/16 06:46:37;;;;;;;5.00;1.52;;;;;;;;;;10021301;28;20943;-67
2021/03/16 06:51:54;;;;;;;5.55;1.98;;;;;;;;;;10052752;28;20040;-67
2021/03/16 06:57:12;;;;;;;7.93;1.25;;;;;;;;;;10031031;28;20040;-67
2021/03/16 07:02:29;;;;;;;8.48;1.75;;;;;;;;;;10037004;29;20040;-66
2021/03/16 07:07:45;;;;;;;11.18;1.23;;;;;;;;;;10044618;29;20132;-67
2021/03/16 07:13:01;;;;;;;10.95;1.13;;;;;;;;;;10038880;29;20033;-64
2021/03/16 07:18:20;;;;;;;8.73;1.55;;;;;;;;;;10052502;29;20641;-65
2021/03/16 07:23:41;;;;;;;5.47;1.65;;;;;;;;;;10041390;29;20335;-65
2021/03/16 07:28:57;;;;;;;12.20;1.77;;;;;;;;;;10046098;29;20032;-66
2021/03/16 07:34:18;;;;;;;7.63;1.38;;;;;;;;;;10044069;29;20044;-66
2021/03/16 07:39:34;;;;;;;9.07;2.42;;;;;;;;;;10045718;29;20426;-65
2021/03/16 07:44:50;;;;;;;4.40;1.40;;;;;;;;;;10022289;29;20036;-65
2021/03/16 07:50:07;;;;;;;3.63;1.08;;;;;;;;;;10048543;29;20040;-65
2021/03/16 07:55:33;;;;;;;5.82;1.25;;;;;;;;;;10045158;28;20048;-65
2021/03/16 08:00:49;;;;;;;7.82;1.65;;;;;;;;;;10040514;29;20426;-65
2021/03/16 08:06:04;;;;;;;3.70;1.38;;;;;;;;;;10051589;28;20426;-65
2021/03/16 08:11:20;;;;;;;11.63;1.90;;;;;;;;;;10038861;29;20043;-65
2021/03/16 08:16:38;;;;;;;10.15;2.10;;;;;;;;;;10039082;28;20045;-64
2021/03/16 08:21:57;;;;;;;14.73;1.98;;;;;;;;;;10038228;29;20539;-64
2021/03/16 08:27:15;;;;;;;14.43;2.67;;;;;;;;;;10024722;28;20309;-64
2021/03/16 08:32:31;;;;;;;5.30;1.13;;;;;;;;;;10048392;29;20036;-64
2021/03/16 08:37:50;;;;;;;8.30;1.85;;;;;;;;;;10049674;29;20052;-64
2021/03/16 08:43:10;;;;;;;9.93;2.00;;;;;;;;;;10043320;29;20040;-66
2021/03/16 08:48:30;;;;;;;8.93;1.30;;;;;;;;;;10045967;29;20044;-67
2021/03/16 08:53:47;;;;;;;13.45;2.40;;;;;;;;;;10044267;28;20048;-65
2021/03/16 08:59:06;;;;;;;14.15;2.17;;;;;;;;;;10038213;29;20445;-65
2021/03/16 09:04:23;;;;;;;9.65;1.48;;;;;;;;;;10067456;28;20052;-65
2021/03/16 09:09:39;;;;;;;9.85;2.33;;;;;;;;;;10062331;29;20711;-67
2021/03/16 09:15:14;;;;;;;13.68;2.17;;;;;;;;;;10056329;28;20131;-66
2021/03/16 09:20:30;;;;;;;10.50;1.67;;;;;;;;;;10044244;29;20072;-65
2021/03/16 09:25:46;;;;;;;13.27;2.00;;;;;;;;;;10052508;28;20459;-65
2021/03/16 09:31:02;;;;;;;8.95;1.52;;;;;;;;;;10048239;29;20048;-64
2021/03/16 09:36:29;;;;;;;7.82;1.35;;;;;;;;;;10037635;28;20068;-66
2021/03/16 09:41:52;;;;;;;9.25;1.75;;;;;;;;;;10048796;29;20064;-65
2021/03/16 09:46:49;;;;;;;6.28;1.30;;;;;;;;;;10043469;29;20470;-66
2021/03/16 09:51:47;;;;;;;6.17;1.70;;;;;;;;;;10054443;29;20048;-64
2021/03/16 09:56:49;;;;;;;5.30;1.83;;;;;;;;;;10047383;28;20041;-65
2021/03/16 10:01:47;;;;;;;10.25;1.20;;;;;;;;;;10038945;29;20353;-64
2021/03/16 10:06:45;;;;;;;9.50;1.40;;;;;;;;;;10041521;28;20511;-65
2021/03/16 10:11:42;;;;;;;2.60;1.10;;;;;;;;;;10040930;29;20051;-66
2021/03/16 10:16:40;;;;;;;10.87;1.63;;;;;;;;;;10047036;28;20040;-66
2021/03/16 10:21:37;;;;;;;6.50;1.57;;;;;;;;;;10044821;29;20040;-65
2021/03/16 10:26:34;;;;;;;11.77;2.10;;;;;;;;;;10043449;29;20088;-66
2021/03/16 10:31:32;;;;;;;10.30;1.87;;;;;;;;;;10025942;29;20032;-65
2021/03/16 10:36:38;;;;;;;2.00;0.47;;;;;;;;;;10040447;29;20415;-65
2021/03/16 10:41:36;;;;;;;5.35;1.60;;;;;;;;;;10023342;29;20538;-66
2021/03/16 10:46:34;;;;;;;11.07;2.40;;;;;;;;;;10046751;29;20071;-65
2021/03/16 10:51:32;;;;;;;;;;;;;;;;;;10037901;29;20119;-66
2021/03/16 10:56:29;;;;;;;8.50;1.60;;;;;;;;;;10047125;29;19994;-66
2021/03/16 11:01:27;;;;;;;6.07;0.70;;;;;;;;;;10044210;29;20047;-65
2021/03/16 11:06:24;;;;;;;1.80;1.23;;;;;;;;;;10036523;29;20585;-65
2021/03/16 11:11:21;;;;;;;9.10;1.50;;;;;;;;;;10043442;29;20028;-66
2021/03/16 11:16:19;;;;;;;8.03;1.80;;;;;;;;;;10034604;29;21405;-65
2021/03/16 11:21:16;;;;;;;4.40;1.00;;;;;;;;;;10041240;29;20582;-65
2021/03/16 11:26:14;;;;;;;5.93;1.30;;;;;;;;;;10041271;28;20036;-65
2021/03/16 11:31:11;;;;;;;4.90;0.90;;;;;;;;;;10047988;29;20528;-66
2021/03/16 11:36:14;;;;;;;7.22;1.17;;;;;;;;;;10045000;28;20040;-65
2021/03/16 11:41:31;;;;;;;9.40;1.42;;;;;;;;;;10043737;29;20143;-65
2021/03/16 11:46:46;;;;;;;6.57;0.90;;;;;;;;;;10036728;29;20251;-65
2021/03/16 11:52:03;;;;;;;4.57;1.08;;;;;;;;;;10030932;29;20529;-65
2021/03/16 11:57:19;;;;;;;5.07;1.80;;;;;;;;;;10045721;29;20417;-66
2021/03/16 12:02:36;;;;;;;8.00;1.52;;;;;;;;;;10044907;29;20040;-66
2021/03/16 12:07:51;;;;;;;3.47;0.65;;;;;;;;;;10043523;29;20043;-66
2021/03/16 12:13:07;;;;;;;6.97;1.27;;;;;;;;;;10033366;29;20490;-66
2021/03/16 12:18:24;;;;;;;7.40;1.20;;;;;;;;;;10031665;29;20064;-65
2021/03/16 12:23:40;;;;;;;3.30;0.73;;;;;;;;;;10022060;29;20044;-65
2021/03/16 12:28:55;;;;;;;5.28;0.85;;;;;;;;;;10050047;29;20036;-65
2021/03/16 12:34:12;;;;;;;6.35;0.60;;;;;;;;;;10042916;29;20045;-64
2021/03/16 12:39:27;;;;;;;6.68;1.23;;;;;;;;;;10036782;29;20119;-65
2021/03/16 12:44:44;;;;;;;6.00;1.30;;;;;;;;;;10041702;28;20044;-64
2021/03/16 12:49:59;;;;;;;6.72;0.93;;;;;;;;;;10028227;29;20041;-65
2021/03/16 12:55:15;;;;;;;3.75;0.45;;;;;;;;;;10055758;29;20044;-65
2021/03/16 13:00:31;;;;;;;1.48;0.70;;;;;;;;;;10026730;29;20426;-65
2021/03/16 13:05:47;;;;;;;6.30;0.98;;;;;;;;;;10040506;28;20471;-64
2021/03/16 13:11:03;;;;;;;3.83;0.75;;;;;;;;;;10038910;29;20048;-65
2021/03/16 13:16:19;;;;;;;6.30;0.88;;;;;;;;;;10039887;29;20048;-65
2021/03/16 13:21:34;;;;;;;3.38;0.80;;;;;;;;;;10034308;29;20036;-64
2021/03/16 13:26:50;;;;;;;2.13;0.77;;;;;;;;;;10030488;29;20039;-64
2021/03/16 13:32:07;;;;;;;2.30;0.35;;;;;;;;;;10029180;29;20075;-64
2021/03/16 13:37:23;;;;;;;9.55;2.13;;;;;;;;;;10025569;29;20040;-64
2021/03/16 13:42:39;;;;;;;5.82;2.10;;;;;;;;;;10032371;29;20083;-65
2021/03/16 13:47:55;;;;;;;4.38;1.50;;;;;;;;;;10023762;29;20418;-66
2021/03/16 13:53:12;;;;;;;5.35;1.85;;;;;;;;;;10030668;28;20043;-66
2021/03/16 13:58:28;;;;;;;5.50;1.08;;;;;;;;;;10010753;29;20040;-64
2021/03/16 14:03:43;;;;;;;5.00;0.98;;;;;;;;;;10045106;28;20064;-66
2021/03/16 14:08:59;;;;;;;2.60;0.60;;;;;;;;;;10038649;29;20044;-67
2021/03/16 14:14:15;;;;;;;2.05;0.52;;;;;;;;;;10059665;29;20407;-66
2021/03/16 14:19:32;;;;;;;1.75;0.40;;;;;;;;;;10029195;29;20036;-65
2021/03/16 14:24:48;;;;;;;2.38;1.13;;;;;;;;;;10027995;29;20036;-66
2021/03/16 14:30:05;;;;;;;0.50;0.38;;;;;;;;;;10043881;29;20036;-66
2021/03/16 14:35:21;;;;;;;2.65;0.95;;;;;;;;;;10029982;29;20036;-65
2021/03/16 14:40:37;;;;;;;4.53;0.60;;;;;;;;;;10042418;29;20557;-65
2021/03/16 14:45:53;;;;;;;3.55;0.80;;;;;;;;;;10032168;29;20044;-66
2021/03/16 14:51:10;;;;;;;4.90;1.13;;;;;;;;;;10042553;28;20036;-65
2021/03/16 14:56:26;;;;;;;2.25;0.75;;;;;;;;;;10029508;29;20043;-66
2021/03/16 15:01:42;;;;;;;0.93;0.35;;;;;;;;;;10029171;29;20072;-66
2021/03/16 15:06:58;;;;;;;1.63;0.30;;;;;;;;;;10049076;29;20415;-65
2021/03/16 15:12:14;;;;;;;1.65;0.55;;;;;;;;;;10053551;29;20044;-65
2021/03/16 15:17:30;;;;;;;1.17;0.60;;;;;;;;;;10033995;29;20036;-66
2021/03/16 15:22:46;;;;;;;2.15;0.73;;;;;;;;;;10018486;29;20048;-65
2021/03/16 15:28:02;;;;;;;3.28;0.60;;;;;;;;;;10017269;29;20068;-65
2021/03/16 15:33:18;;;;;;;1.27;0.47;;;;;;;;;;10032029;28;20135;-65
2021/03/16 15:38:34;;;;;;;0.88;0.17;;;;;;;;;;10028654;28;20044;-65
2021/03/16 15:43:50;;;;;;;5.20;0.90;;;;;;;;;;10029385;29;20418;-65
2021/03/16 15:49:07;;;;;;;4.43;0.90;;;;;;;;;;10027593;29;20672;-65
2021/03/16 15:54:24;;;;;;;0.73;0.30;;;;;;;;;;10020029;28;20048;-64
2021/03/16 15:59:41;;;;;;;0.47;0.47;;;;;;;;;;10022285;28;20072;-66
2021/03/16 16:04:57;;;;;;;2.65;0.52;;;;;;;;;;10033349;29;20122;-66
2021/03/16 16:10:14;;;;;;;2.22;0.70;;;;;;;;;;10031346;29;20044;-64
2021/03/16 16:15:30;;;;;;;2.95;0.70;;;;;;;;;;10040048;28;20055;-65
2021/03/16 16:20:46;;;;;;;0.20;0.20;;;;;;;;;;10018437;28;20456;-64
2021/03/16 16:26:03;;;;;;;3.85;0.63;;;;;;;;;;10031314;28;20044;-65
2021/03/16 16:31:19;;;;;;;3.47;0.50;;;;;;;;;;10029330;28;20135;-65
2021/03/16 16:36:39;;;;;;;4.72;0.50;;;;;;;;;;10027856;29;20509;-65
2021/03/16 16:41:55;;;;;;;2.42;0.50;;;;;;;;;;10032231;29;20032;-62
2021/03/16 16:47:12;;;;;;;2.97;0.50;;;;;;;;;;10028881;29;20047;-65
2021/03/16 16:52:28;;;;;;;1.20;1.10;;;;;;;;;;10029288;29;20064;-65
2021/03/16 16:57:43;;;;;;;1.10;0.30;;;;;;;;;;10026366;28;20076;-66
2021/03/16 17:02:59;;;;;;;2.28;0.47;;;;;;;;;;10016010;29;20585;-66
2021/03/16 17:08:15;;;;;;;1.63;0.30;;;;;;;;;;10034941;29;20044;-65
2021/03/16 17:13:31;;;;;;;1.63;0.55;;;;;;;;;;10044153;29;20040;-65
2021/03/16 17:18:47;;;;;;;2.33;0.60;;;;;;;;;;10042739;28;20495;-65
2021/03/16 17:24:04;;;;;;;4.78;1.25;;;;;;;;;;10055299;29;20499;-66
2021/03/16 17:29:20;;;;;;;1.40;0.50;;;;;;;;;;10058968;29;20040;-66
2021/03/16 17:34:36;;;;;;;1.92;0.82;;;;;;;;;;10037047;28;20043;-65
2021/03/16 17:39:52;;;;;;;1.67;1.25;;;;;;;;;;10053977;29;20067;-65
2021/03/16 17:45:09;;;;;;;0.45;0.45;;;;;;;;;;10049322;28;20068;-64
2021/03/16 17:50:25;;;;;;;5.15;1.25;;;;;;;;;;10051307;29;20040;-63
2021/03/16 17:55:41;;;;;;;5.82;1.35;;;;;;;;;;10031935;28;20043;-65
2021/03/16 18:00:57;;;;;;;3.47;0.80;;;;;;;;;;10040143;28;20052;-65
2021/03/16 18:06:12;;;;;;;2.45;0.73;;;;;;;;;;10043358;28;20542;-65
2021/03/16 18:11:28;;;;;;;3.03;0.63;;;;;;;;;;10048197;28;20477;-64
2021/03/16 18:16:44;;;;;;;2.35;0.70;;;;;;;;;;10041801;28;20483;-64
2021/03/16 18:22:00;;;;;;;1.23;0.40;;;;;;;;;;10040602;29;20036;-65
2021/03/16 18:27:17;;;;;;;1.42;0.55;;;;;;;;;;10042027;29;20167;-65
2021/03/16 18:32:32;;;;;;;5.25;0.70;;;;;;;;;;10051994;29;20044;-67
2021/03/16 18:37:48;;;;;;;2.95;0.57;;;;;;;;;;10040925;29;20029;-66
2021/03/16 18:43:05;;;;;;;5.15;0.95;;;;;;;;;;10048246;28;21637;-65
2021/03/16 18:48:20;;;;;;;0.47;0.45;;;;;;;;;;10033883;29;20739;-65
2021/03/16 18:53:37;;;;;;;2.33;0.82;;;;;;;;;;10038790;29;20131;-66
2021/03/16 18:58:53;;;;;;;3.45;0.60;;;;;;;;;;10047470;28;20036;-66
2021/03/16 19:04:09;;;;;;;0.75;0.30;;;;;;;;;;10048075;29;20044;-66
2021/03/16 19:09:25;;;;;;;4.40;0.95;;;;;;;;;;10041756;28;20044;-66
2021/03/16 19:14:41;;;;;;;1.17;0.65;;;;;;;;;;10041768;29;20131;-66
2021/03/16 19:19:57;;;;;;;2.22;0.80;;;;;;;;;;10043801;28;20123;-65
2021/03/16 19:25:14;;;;;;;6.57;1.13;;;;;;;;;;10045171;29;20376;-64
2021/03/16 19:30:30;;;;;;;2.83;0.93;;;;;;;;;;10034650;29;20467;-64
2021/03/16 19:35:46;;;;;;;2.95;1.27;;;;;;;;;;10043243;29;20516;-66
2021/03/16 19:41:03;;;;;;;8.45;1.73;;;;;;;;;;10040523;29;20031;-66
2021/03/16 19:46:19;;;;;;;3.20;1.52;;;;;;;;;;10049640;29;20040;-65
2021/03/16 19:51:35;;;;;;;7.80;2.28;;;;;;;;;;10045352;29;20492;-66
2021/03/16 19:56:51;;;;;;;4.93;1.88;;;;;;;;;;10043687;29;20040;-65
2021/03/16 20:02:07;;;;;;;3.25;1.42;;;;;;;;;;10044528;29;20073;-65
2021/03/16 20:07:22;;;;;;;3.58;1.42;;;;;;;;;;10027477;29;20265;-65
2021/03/16 20:12:39;;;;;;;11.88;1.30;;;;;;;;;;10046491;28;20301;-66
2021/03/16 20:17:55;;;;;;;6.88;1.25;;;;;;;;;;10049001;29;20040;-65
2021/03/16 20:23:11;;;;;;;5.95;1.23;;;;;;;;;;10040396;29;20036;-66
2021/03/16 20:28:27;;;;;;;1.50;0.80;;;;;;;;;;10037221;29;20041;-65
2021/03/16 20:33:43;;;;;;;3.15;0.90;;;;;;;;;;10030376;28;21023;-65
2021/03/16 20:38:59;;;;;;;0.45;0.32;;;;;;;;;;10047681;28;20529;-65
2021/03/16 20:44:15;;;;;;;4.30;0.77;;;;;;;;;;10038984;29;20066;-66
2021/03/16 20:49:32;;;;;;;8.00;1.42;;;;;;;;;;10044818;28;20052;-65
2021/03/16 20:54:48;;;;;;;4.47;2.35;;;;;;;;;;10047549;29;20036;-65
2021/03/16 21:00:05;;;;;;;2.92;1.60;;;;;;;;;;10049536;29;20454;-64
2021/03/16 21:05:21;;;;;;;4.35;1.35;;;;;;;;;;10043017;29;20425;-65
2021/03/16 21:10:37;;;;;;;0.77;0.68;;;;;;;;;;10049878;28;20032;-64
2021/03/16 21:15:53;;;;;;;3.10;0.88;;;;;;;;;;10035096;29;20127;-64
2021/03/16 21:21:10;;;;;;;1.08;0.45;;;;;;;;;;10045560;28;20040;-64
2021/03/16 21:26:25;;;;;;;3.13;0.30;;;;;;;;;;10052293;28;20044;-65
2021/03/16 21:31:42;;;;;;;0.50;0.50;;;;;;;;;;10041565;29;20072;-65
2021/03/16 21:36:58;;;;;;;2.47;0.75;;;;;;;;;;10055329;29;20044;-65
2021/03/16 21:42:13;;;;;;;1.25;0.40;;;;;;;;;;10040502;28;20036;-65
2021/03/16 21:47:30;;;;;;;2.72;0.50;;;;;;;;;;10051857;29;20179;-65
2021/03/16 21:52:46;;;;;;;1.05;0.68;;;;;;;;;;10050240;29;20051;-65
2021/03/16 21:58:02;;;;;;;1.55;0.55;;;;;;;;;;10043402;29;20040;-65
2021/03/16 22:03:18;;;;;;;3.50;1.02;;;;;;;;;;10047611;29;20048;-65
2021/03/16 22:08:34;;;;;;;1.65;1.05;;;;;;;;;;10034137;29;20041;-65
2021/03/16 22:13:50;;;;;;;2.30;0.80;;;;;;;;;;10047198;29;20993;-65
2021/03/16 22:19:06;;;;;;;3.20;0.73;;;;;;;;;;10032779;29;20843;-65
2021/03/16 22:24:22;;;;;;;2.47;0.75;;;;;;;;;;10041914;29;20048;-65
2021/03/16 22:29:37;;;;;;;1.90;0.73;;;;;;;;;;10041879;29;20425;-66
2021/03/16 22:34:53;;;;;;;2.28;0.40;;;;;;;;;;10041618;28;20040;-64
2021/03/16 22:40:10;;;;;;;1.30;0.32;;;;;;;;;;10048459;29;20088;-64
2021/03/16 22:45:26;;;;;;;2.15;0.80;;;;;;;;;;10045796;29;20044;-66
2021/03/16 22:50:42;;;;;;;3.22;0.35;;;;;;;;;;10039803;28;20258;-65
2021/03/16 22:55:58;;;;;;;1.65;0.90;;;;;;;;;;10054165;29;20037;-65
2021/03/16 23:01:14;;;;;;;1.90;0.73;;;;;;;;;;10051105;29;20036;-65
2021/03/16 23:06:30;;;;;;;3.72;0.75;;;;;;;;;;10037570;28;20040;-65
2021/03/16 23:11:46;;;;;;;0.38;0.38;;;;;;;;;;10036745;29;20612;-65
2021/03/16 23:17:02;;;;;;;0.93;0.45;;;;;;;;;;10047670;29;20048;-65
2021/03/16 23:22:18;;;;;;;0.70;0.40;;;;;;;;;;10062980;29;20040;-64
2021/03/16 23:27:34;;;;;;;0.10;0.10;;;;;;;;;;10051809;29;20044;-66
2021/03/16 23:32:52;;;;;;;3.45;0.60;;;;;;;;;;10052980;29;20048;-65
2021/03/16 23:38:08;;;;;;;3.03;0.80;;;;;;;;;;10043824;29;20104;-65
2021/03/16 23:43:24;;;;;;;1.73;0.77;;;;;;;;;;10050347;29;20041;-65
2021/03/16 23:48:40;;;;;;;5.35;0.65;;;;;;;;;;10047299;29;20406;-65
2021/03/16 23:53:57;;;;;;;0.43;0.30;;;;;;;;;;10056061;29;20036;-65
2021/03/16 23:59:12;;;;;;;0.30;0.25;;;;;;;;;;10051771;29;20068;-65
